Logo AVAMET
Benvolgut visitant, si us plau, ingressa Recuperar contrasenya
AVAMET paisatges

Inforatge Sueca el Perelló

Dades diàries. Acumulats / Últims 30 dies disponibles

Data Temperatura (°C) Humitat rel. (%) Pressió rel. (hPa) Vent (km/h) Precipitació
Mínima Mitjana Màxima Amplitud
tèrmica
Mínima Mitjana Màxima Mínima Mitjana Màxima Predom. Mitjana Ràfega
màxima
Total
(mm)
Índex-n
Mínima Mitjana Màxima Mínima Mitjana Màxima n
0 a 1
P0 max
mm 5'
Dades mensuals acumulades fins l'últim dia disponible
06/2020 18,0 18,4 18,9 22,1 23,7 25,9 30,1 12,1 49 81 92 1.002 1.013 1.017   10,8 62,8 0,0
Dades anuals acumulades fins l'últim dia disponible
2020 4,5 11,5 20,8 15,0 11,0 18,9 32,3 27,8 31 80 94 1.000 1.020 1.035   11,7 111,0 289,0
Últims 30 dies disponibles
03-06-2020 18,2     23,2     30,1 11,9 49 78 92 1.002 1.008 1.014 SSE 11,0 62,8 0,0
02-06-2020 18,0     21,6     23,9 5,9 72 84 90 1.013 1.015 1.017 NE 10,1 33,8 0,0
01-06-2020 18,9     21,6     23,7 4,8 67 83 91 1.014 1.015 1.017 ENE 11,4 37,0 0,0
31-05-2020 17,2     20,9     23,2 6,0 63 79 89 1.011 1.014 1.016 SSE 14,0 46,7 0,0
30-05-2020 16,9     21,2     23,0 6,1 60 75 88 1.013 1.015 1.017 ENE 12,6 38,6 0,0
29-05-2020 16,2     21,0     24,6 8,4 53 73 89 1.013 1.017 1.022 E 13,8 43,5 0,0
28-05-2020 19,8     21,4     23,1 3,3 66 79 86 1.021 1.024 1.027 NE 10,9 32,2 0,0
27-05-2020 16,9     20,9     24,2 7,3 53 79 89 1.025 1.025 1.027 NE 10,6 38,6 0,0
26-05-2020 17,2     20,8     23,2 6,0 71 81 90 1.024 1.026 1.027 NE 5,8 20,9 0,0
25-05-2020 16,7     20,2     22,8 6,1 65 78 89 1.024 1.026 1.027 NE 7,6 25,7 0,0
24-05-2020 20,8     21,7     22,6 1,8 66 80 90 1.027 1.027 1.029 NE 13,8 37,0 0,0
23-05-2020 17,9     21,6     24,3 6,4 71 81 88 1.023 1.024 1.027 ENE 10,6 35,4 0,0
22-05-2020 18,3     21,8     24,1 5,8 73 82 91 1.020 1.022 1.025 NE 8,9 30,6 0,0
21-05-2020 15,8     21,1     26,7 10,9 48 81 92 1.017 1.019 1.021 ENE 8,7 33,8 0,0
20-05-2020 16,8     20,7     24,3 7,5 51 81 91 1.014 1.016 1.018 NE 9,8 30,6 0,0
19-05-2020 14,7     20,2     26,2 11,5 48 78 92 1.015 1.018 1.021 WSW 10,6 32,2 0,0
18-05-2020 14,4     18,8     23,8 9,4 57 81 90 1.019 1.021 1.022 ENE 10,3 32,2 0,0
17-05-2020 14,2     18,1     20,4 6,2 64 80 92 1.019 1.021 1.022 E 7,9 27,4 1,0
16-05-2020 15,3     18,0     20,8 5,5 65 78 92 1.015 1.017 1.020 N 6,9 30,6 0,2
15-05-2020 11,8     16,2     19,8 8,0 67 81 89 1.010 1.013 1.016 NE 7,9 29,0 0,2
14-05-2020 13,4     17,2     20,4 7,0 64 78 91 1.003 1.005 1.010 SW 17,7 66,0 8,2 0,12 0,30
13-05-2020 13,1     18,9     24,8 11,7 37 67 87 1.004 1.006 1.007 WSW 15,6 46,7 0,0
12-05-2020 16,0     18,8     21,3 5,3 56 75 91 1.007 1.009 1.011 NNE 10,8 37,0 1,0
11-05-2020 15,7     21,1     26,7 11,0 37 54 70 1.007 1.008 1.011 WSW 24,3 64,4 0,0
10-05-2020 16,1     19,9     25,1 9,0 33 67 92 1.004 1.006 1.009 SW 20,6 67,6 1,6
09-05-2020 15,1     18,9     21,6 6,5 79 86 92 1.009 1.012 1.016 NE 8,0 27,4 0,0
08-05-2020 19,0     19,8     21,2 2,2 76 85 90 1.014 1.017 1.019 NNE 11,9 43,5 0,0
07-05-2020 14,7     19,2     22,4 7,7 76 88 93 1.017 1.019 1.020 NE 6,4 32,2 0,0
06-05-2020 15,8     19,4     21,9 6,1 74 87 93 1.015 1.016 1.019 ENE 7,9 25,7 0,2
05-05-2020 14,9     19,0     24,1 9,2 63 87 93 1.013 1.014 1.016 WSW 7,1 27,4 0,0
Últims 13 mesos disponibles
05/2020 11,8 16,1 20,8 20,1 19,8 23,7 32,3 20,5 54 77 88 1.005 1.017 1.027 NE 11,4 67,6 12,4
04/2020 8,3 12,3 16,5 15,5 15,2 18,7 25,9 17,6 56 83 93 1.006 1.016 1.026 NE 9,6 59,5 63,6
03/2020 5,2 10,3 16,5 13,7 11,6 17,2 22,6 17,4 52 77 93 1.007 1.018 1.027 NNE 14,8 104,6 78,2
02/2020 6,2 10,0 14,7 14,0 14,4 18,9 26,2 20,0 60 80 91 1.014 1.026 1.033 NNW 9,9 53,1 2,4
01/2020 4,5 8,1 13,9 11,1 11,0 15,1 19,6 15,1 68 82 93 1.016 1.026 1.033 WSW 12,9 111,0 132,4
12/2019 6,4 11,1 16,3 13,8 13,1 16,9 23,8 17,4 59 77 91 1.002 1.019 1.033 W 16,7 107,8 103,2
11/2019 6,8 12,0 20,8 15,1 14,8 18,9 27,2 20,4 55 66 84 999 1.011 1.019 W 18,5 78,9 6,6
10/2019 11,2 15,3 20,7 19,5 18,4 24,2 33,8 22,6 54 77 89 1.008 1.017 1.022 W 9,3 54,7 38,4
09/2019 14,6 19,4 24,8 23,2 23,1 26,6 32,7 18,1 57 80 89 1.010 1.017 1.024 SSE 11,5 90,7 55,4
08/2019 17,6 21,8 26,4 25,5 26,7 28,8 36,8 19,2 67 81 87 1.010 1.016 1.020 S 9,9 79,6 5,2
07/2019 19,8 21,9 25,1 25,7 26,7 28,6 33,5 13,7 63 80 88 1.005 1.014 1.021 SSE 10,1 53,7 3,8
06/2019 12,9 18,1 22,4 21,6 20,1 24,8 30,4 17,5 54 78 87 1.009 1.015 1.022 SSE 10,9 64,8 0,8
05/2019 7,9 13,9 20,3 18,0 17,3 21,3 32,7 24,8 53 76 87 1.005 1.015 1.024 SSE 11,4 66,7 5,0
Tots els anys disponibles
2019 2,4 13,9 26,4 17,8 11,8 21,6 36,8 34,4 45 75 94 995 1.017 1.034 SSE 12,2 107,8 274,6
2018 1,2 14,1 26,1 17,8 8,3 21,5 35,2 34,0 46 76 94 993 1.016 1.035 S 12,0 98,2 769,4
2017 2,2 14,8 25,8 18,7 11,1 22,3 35,3 33,1 48 77 93 998 1.019 1.036 S 6,5 88,9 175,2
Temperatura (°C)
Humitat relativa (%)
Velocitat del vent i ràfega màxima (km/h)
Direcció del vent (°)
Pressió (hPa)
Precipitació (mm)
Nota sobre les dades: s'avisa a l'usuari de la provisionalitat i no oficialitat d'aquestes dades
Logo AVAMET blanc
Web allotjada a Sollutia
Llicència de Creative CommonsLa web d'AVAMET i els seus continguts estan subjectes a una llicència de
Reconeixement - No Comercial - Compartir igual
Últimes estacions: Biar - IES Biar (Soci), Xodos - la Vega (Soci), la Vall d'Alba - Centre (Ajuntament soci), Chera (Ajuntament soci) - - -